sensor_id;sensor_type;location;lat;lon;timestamp;temperature;humidity
32614;DHT22;19031;51.400;6.770;2022-08-03T00:01:37;19.80;82.70
32614;DHT22;19031;51.400;6.770;2022-08-03T00:04:04;19.70;82.70
32614;DHT22;19031;51.400;6.770;2022-08-03T00:06:30;19.80;78.70
32614;DHT22;19031;51.400;6.770;2022-08-03T00:08:55;19.70;78.80
32614;DHT22;19031;51.400;6.770;2022-08-03T00:11:21;19.70;78.00
32614;DHT22;19031;51.400;6.770;2022-08-03T00:13:47;19.70;81.90
32614;DHT22;19031;51.400;6.770;2022-08-03T00:16:12;19.70;83.40
32614;DHT22;19031;51.400;6.770;2022-08-03T00:18:38;19.60;86.00
32614;DHT22;19031;51.400;6.770;2022-08-03T00:21:04;19.60;88.70
32614;DHT22;19031;51.400;6.770;2022-08-03T00:23:30;19.60;89.30
32614;DHT22;19031;51.400;6.770;2022-08-03T00:25:56;19.50;87.10
32614;DHT22;19031;51.400;6.770;2022-08-03T00:28:22;19.50;85.30
32614;DHT22;19031;51.400;6.770;2022-08-03T00:30:48;19.40;86.60
32614;DHT22;19031;51.400;6.770;2022-08-03T00:33:14;19.40;88.10
32614;DHT22;19031;51.400;6.770;2022-08-03T00:35:39;19.50;89.00
32614;DHT22;19031;51.400;6.770;2022-08-03T00:38:05;19.40;89.00
32614;DHT22;19031;51.400;6.770;2022-08-03T00:40:31;19.40;88.20
32614;DHT22;19031;51.400;6.770;2022-08-03T00:42:58;19.30;86.10
32614;DHT22;19031;51.400;6.770;2022-08-03T00:45:30;19.30;86.60
32614;DHT22;19031;51.400;6.770;2022-08-03T00:47:57;19.40;87.20
32614;DHT22;19031;51.400;6.770;2022-08-03T00:50:25;19.30;88.10
32614;DHT22;19031;51.400;6.770;2022-08-03T00:52:54;19.30;88.10
32614;DHT22;19031;51.400;6.770;2022-08-03T00:55:20;19.20;88.70
32614;DHT22;19031;51.400;6.770;2022-08-03T00:57:46;19.20;90.50
32614;DHT22;19031;51.400;6.770;2022-08-03T01:00:15;19.20;90.60
32614;DHT22;19031;51.400;6.770;2022-08-03T01:02:41;19.20;91.20
32614;DHT22;19031;51.400;6.770;2022-08-03T01:05:07;19.20;92.60
32614;DHT22;19031;51.400;6.770;2022-08-03T01:07:45;19.10;94.70
32614;DHT22;19031;51.400;6.770;2022-08-03T01:10:38;19.10;94.20
32614;DHT22;19031;51.400;6.770;2022-08-03T01:13:16;19.20;93.60
32614;DHT22;19031;51.400;6.770;2022-08-03T01:15:53;19.20;94.10
32614;DHT22;19031;51.400;6.770;2022-08-03T01:21:23;19.10;94.90
32614;DHT22;19031;51.400;6.770;2022-08-03T01:27:04;19.10;95.00
32614;DHT22;19031;51.400;6.770;2022-08-03T01:29:45;19.10;95.00
32614;DHT22;19031;51.400;6.770;2022-08-03T01:32:17;19.10;95.60
32614;DHT22;19031;51.400;6.770;2022-08-03T01:34:51;19.10;95.20
32614;DHT22;19031;51.400;6.770;2022-08-03T01:37:20;19.00;94.80
32614;DHT22;19031;51.400;6.770;2022-08-03T01:39:48;19.10;95.50
32614;DHT22;19031;51.400;6.770;2022-08-03T01:42:16;19.00;94.60
32614;DHT22;19031;51.400;6.770;2022-08-03T01:44:43;19.00;93.40
32614;DHT22;19031;51.400;6.770;2022-08-03T01:47:10;18.90;93.20
32614;DHT22;19031;51.400;6.770;2022-08-03T01:49:42;18.90;93.90
32614;DHT22;19031;51.400;6.770;2022-08-03T01:52:10;18.80;93.60
32614;DHT22;19031;51.400;6.770;2022-08-03T01:54:41;18.80;93.70
32614;DHT22;19031;51.400;6.770;2022-08-03T01:57:08;18.80;92.60
32614;DHT22;19031;51.400;6.770;2022-08-03T01:59:35;18.80;91.90
32614;DHT22;19031;51.400;6.770;2022-08-03T02:02:03;18.70;90.80
32614;DHT22;19031;51.400;6.770;2022-08-03T02:04:29;18.80;90.90
32614;DHT22;19031;51.400;6.770;2022-08-03T02:06:56;18.80;92.10
32614;DHT22;19031;51.400;6.770;2022-08-03T02:09:23;18.70;92.10
32614;DHT22;19031;51.400;6.770;2022-08-03T02:11:50;18.70;93.70
32614;DHT22;19031;51.400;6.770;2022-08-03T02:14:18;18.70;92.60
32614;DHT22;19031;51.400;6.770;2022-08-03T02:16:44;18.70;93.00
32614;DHT22;19031;51.400;6.770;2022-08-03T02:19:10;18.50;92.60
32614;DHT22;19031;51.400;6.770;2022-08-03T02:21:36;18.50;93.30
32614;DHT22;19031;51.400;6.770;2022-08-03T02:24:04;18.50;94.50
32614;DHT22;19031;51.400;6.770;2022-08-03T02:26:30;18.50;93.80
32614;DHT22;19031;51.400;6.770;2022-08-03T02:29:12;18.40;93.70
32614;DHT22;19031;51.400;6.770;2022-08-03T02:31:42;18.50;92.90
32614;DHT22;19031;51.400;6.770;2022-08-03T02:34:12;18.40;93.60
32614;DHT22;19031;51.400;6.770;2022-08-03T02:36:41;18.40;94.70
32614;DHT22;19031;51.400;6.770;2022-08-03T02:39:10;18.40;95.30
32614;DHT22;19031;51.400;6.770;2022-08-03T02:41:41;18.40;95.00
32614;DHT22;19031;51.400;6.770;2022-08-03T02:44:10;18.30;94.00
32614;DHT22;19031;51.400;6.770;2022-08-03T02:46:43;18.30;94.80
32614;DHT22;19031;51.400;6.770;2022-08-03T02:49:10;18.40;95.30
32614;DHT22;19031;51.400;6.770;2022-08-03T02:51:38;18.30;95.70
32614;DHT22;19031;51.400;6.770;2022-08-03T02:54:05;18.30;95.30
32614;DHT22;19031;51.400;6.770;2022-08-03T02:56:33;18.20;95.10
32614;DHT22;19031;51.400;6.770;2022-08-03T02:59:00;18.20;95.20
32614;DHT22;19031;51.400;6.770;2022-08-03T03:01:27;18.20;98.00
32614;DHT22;19031;51.400;6.770;2022-08-03T03:03:55;18.20;97.30
32614;DHT22;19031;51.400;6.770;2022-08-03T03:06:22;18.20;97.40
32614;DHT22;19031;51.400;6.770;2022-08-03T03:08:48;18.20;97.90
32614;DHT22;19031;51.400;6.770;2022-08-03T03:11:16;18.20;98.50
32614;DHT22;19031;51.400;6.770;2022-08-03T03:13:44;18.30;98.60
32614;DHT22;19031;51.400;6.770;2022-08-03T03:16:11;18.20;98.20
32614;DHT22;19031;51.400;6.770;2022-08-03T03:18:39;18.20;97.30
32614;DHT22;19031;51.400;6.770;2022-08-03T03:21:07;18.20;96.70
32614;DHT22;19031;51.400;6.770;2022-08-03T03:23:36;18.10;97.70
32614;DHT22;19031;51.400;6.770;2022-08-03T03:26:02;18.10;98.90
32614;DHT22;19031;51.400;6.770;2022-08-03T03:28:29;18.10;98.50
32614;DHT22;19031;51.400;6.770;2022-08-03T03:30:55;18.00;97.70
32614;DHT22;19031;51.400;6.770;2022-08-03T03:33:21;18.00;97.30
32614;DHT22;19031;51.400;6.770;2022-08-03T03:35:47;18.10;97.60
32614;DHT22;19031;51.400;6.770;2022-08-03T03:38:13;17.90;97.70
32614;DHT22;19031;51.400;6.770;2022-08-03T03:40:39;18.00;97.80
32614;DHT22;19031;51.400;6.770;2022-08-03T03:43:10;18.00;97.50
32614;DHT22;19031;51.400;6.770;2022-08-03T03:45:37;17.90;97.80
32614;DHT22;19031;51.400;6.770;2022-08-03T03:48:06;17.90;98.30
32614;DHT22;19031;51.400;6.770;2022-08-03T03:50:34;17.80;98.40
32614;DHT22;19031;51.400;6.770;2022-08-03T03:53:03;17.80;97.60
32614;DHT22;19031;51.400;6.770;2022-08-03T03:55:29;17.80;97.40
32614;DHT22;19031;51.400;6.770;2022-08-03T03:57:55;17.80;98.20
32614;DHT22;19031;51.400;6.770;2022-08-03T04:00:21;17.80;97.80
32614;DHT22;19031;51.400;6.770;2022-08-03T04:02:47;17.80;97.90
32614;DHT22;19031;51.400;6.770;2022-08-03T04:05:13;17.90;97.90
32614;DHT22;19031;51.400;6.770;2022-08-03T04:08:05;17.90;97.50
32614;DHT22;19031;51.400;6.770;2022-08-03T04:16:22;17.90;99.90
32614;DHT22;19031;51.400;6.770;2022-08-03T04:18:54;17.80;99.90
32614;DHT22;19031;51.400;6.770;2022-08-03T04:21:20;17.80;99.90
32614;DHT22;19031;51.400;6.770;2022-08-03T04:23:50;17.90;99.90
32614;DHT22;19031;51.400;6.770;2022-08-03T04:26:20;17.80;99.90
32614;DHT22;19031;51.400;6.770;2022-08-03T04:28:47;17.90;99.90
32614;DHT22;19031;51.400;6.770;2022-08-03T04:31:15;17.80;99.90
32614;DHT22;19031;51.400;6.770;2022-08-03T04:33:42;17.90;99.90
32614;DHT22;19031;51.400;6.770;2022-08-03T04:36:11;17.90;99.90
32614;DHT22;19031;51.400;6.770;2022-08-03T04:38:56;17.90;99.90
32614;DHT22;19031;51.400;6.770;2022-08-03T04:41:26;17.90;99.90
32614;DHT22;19031;51.400;6.770;2022-08-03T04:43:56;18.00;99.90
32614;DHT22;19031;51.400;6.770;2022-08-03T04:46:26;18.00;99.90
32614;DHT22;19031;51.400;6.770;2022-08-03T04:48:52;18.00;99.90
32614;DHT22;19031;51.400;6.770;2022-08-03T04:51:18;18.10;99.90
32614;DHT22;19031;51.400;6.770;2022-08-03T04:53:44;18.10;99.90
32614;DHT22;19031;51.400;6.770;2022-08-03T04:56:10;18.20;99.90
32614;DHT22;19031;51.400;6.770;2022-08-03T04:58:36;18.20;99.90
32614;DHT22;19031;51.400;6.770;2022-08-03T05:01:01;18.20;99.90
32614;DHT22;19031;51.400;6.770;2022-08-03T05:03:27;18.30;99.90
32614;DHT22;19031;51.400;6.770;2022-08-03T05:05:53;18.40;99.90
32614;DHT22;19031;51.400;6.770;2022-08-03T05:08:19;18.40;99.90
32614;DHT22;19031;51.400;6.770;2022-08-03T05:10:45;18.40;99.90
32614;DHT22;19031;51.400;6.770;2022-08-03T05:13:11;18.40;99.90
32614;DHT22;19031;51.400;6.770;2022-08-03T05:15:38;18.60;99.90
32614;DHT22;19031;51.400;6.770;2022-08-03T05:18:04;18.60;99.90
32614;DHT22;19031;51.400;6.770;2022-08-03T05:20:30;18.70;99.90
32614;DHT22;19031;51.400;6.770;2022-08-03T05:22:56;18.80;99.90
32614;DHT22;19031;51.400;6.770;2022-08-03T05:25:22;18.90;99.80
32614;DHT22;19031;51.400;6.770;2022-08-03T05:27:47;19.00;99.40
32614;DHT22;19031;51.400;6.770;2022-08-03T05:30:13;19.10;99.30
32614;DHT22;19031;51.400;6.770;2022-08-03T05:32:39;19.30;97.20
32614;DHT22;19031;51.400;6.770;2022-08-03T05:35:05;19.40;96.40
32614;DHT22;19031;51.400;6.770;2022-08-03T05:37:31;19.50;96.10
32614;DHT22;19031;51.400;6.770;2022-08-03T05:39:56;19.60;95.30
32614;DHT22;19031;51.400;6.770;2022-08-03T05:42:22;19.70;95.50
32614;DHT22;19031;51.400;6.770;2022-08-03T05:44:48;19.80;94.50
32614;DHT22;19031;51.400;6.770;2022-08-03T05:47:13;19.90;94.20
32614;DHT22;19031;51.400;6.770;2022-08-03T05:49:39;20.00;93.30
32614;DHT22;19031;51.400;6.770;2022-08-03T05:52:04;20.10;91.60
32614;DHT22;19031;51.400;6.770;2022-08-03T05:54:30;20.20;90.20
32614;DHT22;19031;51.400;6.770;2022-08-03T05:56:56;20.40;84.90
32614;DHT22;19031;51.400;6.770;2022-08-03T05:59:21;20.30;84.30
32614;DHT22;19031;51.400;6.770;2022-08-03T06:01:47;20.50;82.10
32614;DHT22;19031;51.400;6.770;2022-08-03T06:04:13;20.60;81.10
32614;DHT22;19031;51.400;6.770;2022-08-03T06:06:38;20.70;78.90
32614;DHT22;19031;51.400;6.770;2022-08-03T06:09:04;20.80;77.10
32614;DHT22;19031;51.400;6.770;2022-08-03T06:11:30;20.90;67.80
32614;DHT22;19031;51.400;6.770;2022-08-03T06:13:55;21.10;68.90
32614;DHT22;19031;51.400;6.770;2022-08-03T06:16:21;21.20;62.40
32614;DHT22;19031;51.400;6.770;2022-08-03T06:18:46;21.20;63.10
32614;DHT22;19031;51.400;6.770;2022-08-03T06:21:12;21.40;59.30
32614;DHT22;19031;51.400;6.770;2022-08-03T06:23:37;21.50;55.90
32614;DHT22;19031;51.400;6.770;2022-08-03T06:26:03;21.70;53.00
32614;DHT22;19031;51.400;6.770;2022-08-03T06:28:29;21.80;42.60
32614;DHT22;19031;51.400;6.770;2022-08-03T06:30:54;21.90;32.80
32614;DHT22;19031;51.400;6.770;2022-08-03T06:33:20;22.10;25.80
32614;DHT22;19031;51.400;6.770;2022-08-03T06:35:45;22.20;22.90
32614;DHT22;19031;51.400;6.770;2022-08-03T06:38:11;22.40;22.20
32614;DHT22;19031;51.400;6.770;2022-08-03T06:40:37;22.70;18.50
32614;DHT22;19031;51.400;6.770;2022-08-03T06:43:07;22.90;9.60
32614;DHT22;19031;51.400;6.770;2022-08-03T06:45:33;23.20;1.00
32614;DHT22;19031;51.400;6.770;2022-08-03T06:48:10;23.40;1.00
32614;DHT22;19031;51.400;6.770;2022-08-03T06:50:39;23.80;1.00
32614;DHT22;19031;51.400;6.770;2022-08-03T06:53:05;24.00;1.00
32614;DHT22;19031;51.400;6.770;2022-08-03T06:55:32;24.30;1.00
32614;DHT22;19031;51.400;6.770;2022-08-03T06:57:58;24.50;1.00
32614;DHT22;19031;51.400;6.770;2022-08-03T07:00:23;24.70;1.00
32614;DHT22;19031;51.400;6.770;2022-08-03T07:02:49;24.90;1.00
32614;DHT22;19031;51.400;6.770;2022-08-03T07:05:16;25.10;1.00
32614;DHT22;19031;51.400;6.770;2022-08-03T07:07:42;25.30;1.00
32614;DHT22;19031;51.400;6.770;2022-08-03T07:10:08;25.50;99.90
32614;DHT22;19031;51.400;6.770;2022-08-03T07:12:36;25.60;99.90
32614;DHT22;19031;51.400;6.770;2022-08-03T07:15:03;25.80;99.90
32614;DHT22;19031;51.400;6.770;2022-08-03T07:17:31;26.00;99.90
32614;DHT22;19031;51.400;6.770;2022-08-03T07:19:57;26.20;99.90
32614;DHT22;19031;51.400;6.770;2022-08-03T07:22:23;26.50;99.90
32614;DHT22;19031;51.400;6.770;2022-08-03T07:24:48;26.60;99.90
32614;DHT22;19031;51.400;6.770;2022-08-03T07:27:15;26.80;99.90
32614;DHT22;19031;51.400;6.770;2022-08-03T07:29:40;27.10;99.90
32614;DHT22;19031;51.400;6.770;2022-08-03T07:32:06;27.40;99.90
32614;DHT22;19031;51.400;6.770;2022-08-03T07:34:32;27.50;99.90
32614;DHT22;19031;51.400;6.770;2022-08-03T07:36:57;27.80;99.90
32614;DHT22;19031;51.400;6.770;2022-08-03T07:39:23;28.00;99.90
32614;DHT22;19031;51.400;6.770;2022-08-03T07:41:48;28.20;85.60
32614;DHT22;19031;51.400;6.770;2022-08-03T07:44:19;28.30;6.60
32614;DHT22;19031;51.400;6.770;2022-08-03T07:46:45;28.60;1.00
32614;DHT22;19031;51.400;6.770;2022-08-03T07:49:11;28.60;99.90
32614;DHT22;19031;51.400;6.770;2022-08-03T07:51:37;28.90;99.90
32614;DHT22;19031;51.400;6.770;2022-08-03T07:54:03;28.90;99.90
32614;DHT22;19031;51.400;6.770;2022-08-03T07:56:29;29.00;99.90
32614;DHT22;19031;51.400;6.770;2022-08-03T07:58:55;29.20;66.70
32614;DHT22;19031;51.400;6.770;2022-08-03T08:01:21;29.50;1.00
32614;DHT22;19031;51.400;6.770;2022-08-03T08:03:48;29.80;72.70
32614;DHT22;19031;51.400;6.770;2022-08-03T08:06:14;30.10;99.90
32614;DHT22;19031;51.400;6.770;2022-08-03T08:08:40;30.10;99.90
32614;DHT22;19031;51.400;6.770;2022-08-03T08:11:06;30.20;1.00
32614;DHT22;19031;51.400;6.770;2022-08-03T08:13:32;30.00;99.90
32614;DHT22;19031;51.400;6.770;2022-08-03T08:15:58;30.20;21.60
32614;DHT22;19031;51.400;6.770;2022-08-03T08:18:24;30.30;99.90
32614;DHT22;19031;51.400;6.770;2022-08-03T08:20:50;30.60;99.90
32614;DHT22;19031;51.400;6.770;2022-08-03T08:23:16;30.70;99.90
32614;DHT22;19031;51.400;6.770;2022-08-03T08:25:47;30.70;95.60
32614;DHT22;19031;51.400;6.770;2022-08-03T08:28:13;30.90;99.90
32614;DHT22;19031;51.400;6.770;2022-08-03T08:30:39;31.10;99.90
32614;DHT22;19031;51.400;6.770;2022-08-03T08:33:04;31.10;97.40
32614;DHT22;19031;51.400;6.770;2022-08-03T08:35:30;31.40;60.10
32614;DHT22;19031;51.400;6.770;2022-08-03T08:37:55;31.70;99.90
32614;DHT22;19031;51.400;6.770;2022-08-03T08:40:23;31.90;99.20
32614;DHT22;19031;51.400;6.770;2022-08-03T08:42:49;32.10;36.10
32614;DHT22;19031;51.400;6.770;2022-08-03T08:45:15;32.20;99.90
32614;DHT22;19031;51.400;6.770;2022-08-03T08:47:45;32.50;99.90
32614;DHT22;19031;51.400;6.770;2022-08-03T08:50:11;32.50;91.60
32614;DHT22;19031;51.400;6.770;2022-08-03T08:52:39;32.40;99.60
32614;DHT22;19031;51.400;6.770;2022-08-03T08:55:07;32.60;73.50
32614;DHT22;19031;51.400;6.770;2022-08-03T08:57:40;32.80;1.00
32614;DHT22;19031;51.400;6.770;2022-08-03T09:00:09;32.90;1.00
32614;DHT22;19031;51.400;6.770;2022-08-03T09:02:38;33.10;99.90
32614;DHT22;19031;51.400;6.770;2022-08-03T09:05:03;33.40;99.90
32614;DHT22;19031;51.400;6.770;2022-08-03T09:07:29;33.60;99.90
32614;DHT22;19031;51.400;6.770;2022-08-03T09:09:55;33.90;99.90
32614;DHT22;19031;51.400;6.770;2022-08-03T09:12:21;33.70;99.90
32614;DHT22;19031;51.400;6.770;2022-08-03T09:14:46;33.80;85.00
32614;DHT22;19031;51.400;6.770;2022-08-03T09:17:12;33.50;50.40
32614;DHT22;19031;51.400;6.770;2022-08-03T09:19:38;33.60;66.30
32614;DHT22;19031;51.400;6.770;2022-08-03T09:22:08;33.50;42.30
32614;DHT22;19031;51.400;6.770;2022-08-03T09:24:36;33.80;73.40
32614;DHT22;19031;51.400;6.770;2022-08-03T09:27:05;34.00;1.00
32614;DHT22;19031;51.400;6.770;2022-08-03T09:29:32;34.20;1.00
32614;DHT22;19031;51.400;6.770;2022-08-03T09:32:02;34.60;1.00
32614;DHT22;19031;51.400;6.770;2022-08-03T09:34:28;34.60;99.90
32614;DHT22;19031;51.400;6.770;2022-08-03T09:36:54;35.00;99.90
32614;DHT22;19031;51.400;6.770;2022-08-03T09:39:24;35.10;99.90
32614;DHT22;19031;51.400;6.770;2022-08-03T09:42:12;35.30;99.90
32614;DHT22;19031;51.400;6.770;2022-08-03T09:44:40;35.40;99.90
32614;DHT22;19031;51.400;6.770;2022-08-03T09:47:07;35.50;99.90
32614;DHT22;19031;51.400;6.770;2022-08-03T09:49:35;35.70;99.90
32614;DHT22;19031;51.400;6.770;2022-08-03T09:52:10;35.60;99.90
32614;DHT22;19031;51.400;6.770;2022-08-03T09:54:37;35.70;99.90
32614;DHT22;19031;51.400;6.770;2022-08-03T09:57:03;35.70;99.90
32614;DHT22;19031;51.400;6.770;2022-08-03T09:59:30;35.70;99.90
32614;DHT22;19031;51.400;6.770;2022-08-03T10:01:57;35.50;99.90
32614;DHT22;19031;51.400;6.770;2022-08-03T10:04:25;35.70;99.90
32614;DHT22;19031;51.400;6.770;2022-08-03T10:07:05;35.10;71.70
32614;DHT22;19031;51.400;6.770;2022-08-03T10:09:32;35.30;99.70
32614;DHT22;19031;51.400;6.770;2022-08-03T10:12:06;35.20;95.30
32614;DHT22;19031;51.400;6.770;2022-08-03T10:14:32;35.40;81.90
32614;DHT22;19031;51.400;6.770;2022-08-03T10:16:59;35.20;74.40
32614;DHT22;19031;51.400;6.770;2022-08-03T10:19:25;35.40;61.10
32614;DHT22;19031;51.400;6.770;2022-08-03T10:22:02;35.20;54.90
32614;DHT22;19031;51.400;6.770;2022-08-03T10:24:29;35.30;54.70
32614;DHT22;19031;51.400;6.770;2022-08-03T10:27:04;35.50;53.40
32614;DHT22;19031;51.400;6.770;2022-08-03T10:29:37;35.90;39.30
32614;DHT22;19031;51.400;6.770;2022-08-03T10:32:07;36.10;23.50
32614;DHT22;19031;51.400;6.770;2022-08-03T10:34:36;36.00;7.20
32614;DHT22;19031;51.400;6.770;2022-08-03T10:37:08;36.10;1.00
32614;DHT22;19031;51.400;6.770;2022-08-03T10:39:35;36.10;1.00
32614;DHT22;19031;51.400;6.770;2022-08-03T10:42:01;36.20;1.00
32614;DHT22;19031;51.400;6.770;2022-08-03T10:44:32;36.50;1.00
32614;DHT22;19031;51.400;6.770;2022-08-03T10:46:58;36.70;1.00
32614;DHT22;19031;51.400;6.770;2022-08-03T10:49:24;36.80;1.00
32614;DHT22;19031;51.400;6.770;2022-08-03T10:51:50;37.10;1.00
32614;DHT22;19031;51.400;6.770;2022-08-03T10:54:37;36.90;1.00
32614;DHT22;19031;51.400;6.770;2022-08-03T11:00:07;37.20;1.00
32614;DHT22;19031;51.400;6.770;2022-08-03T11:03:03;37.10;1.00
32614;DHT22;19031;51.400;6.770;2022-08-03T11:05:32;37.40;1.00
32614;DHT22;19031;51.400;6.770;2022-08-03T11:08:18;37.20;1.00
32614;DHT22;19031;51.400;6.770;2022-08-03T11:10:44;37.40;1.00
32614;DHT22;19031;51.400;6.770;2022-08-03T11:13:14;37.80;1.00
32614;DHT22;19031;51.400;6.770;2022-08-03T11:15:43;37.80;99.90
32614;DHT22;19031;51.400;6.770;2022-08-03T11:18:11;37.40;99.90
32614;DHT22;19031;51.400;6.770;2022-08-03T11:20:52;37.60;1.00
32614;DHT22;19031;51.400;6.770;2022-08-03T11:23:51;37.90;99.90
32614;DHT22;19031;51.400;6.770;2022-08-03T11:26:17;38.10;99.90
32614;DHT22;19031;51.400;6.770;2022-08-03T11:28:46;37.80;99.90
32614;DHT22;19031;51.400;6.770;2022-08-03T11:34:05;37.90;99.90
32614;DHT22;19031;51.400;6.770;2022-08-03T11:37:16;38.30;99.90
32614;DHT22;19031;51.400;6.770;2022-08-03T11:39:16;38.30;99.90
32614;DHT22;19031;51.400;6.770;2022-08-03T11:41:42;38.00;99.90
32614;DHT22;19031;51.400;6.770;2022-08-03T11:44:07;38.00;99.90
32614;DHT22;19031;51.400;6.770;2022-08-03T11:46:38;38.20;99.90
32614;DHT22;19031;51.400;6.770;2022-08-03T11:49:05;38.60;99.90
32614;DHT22;19031;51.400;6.770;2022-08-03T11:51:34;38.90;99.90
32614;DHT22;19031;51.400;6.770;2022-08-03T11:54:02;38.80;99.90
32614;DHT22;19031;51.400;6.770;2022-08-03T11:56:46;38.70;99.90
32614;DHT22;19031;51.400;6.770;2022-08-03T11:59:12;38.90;99.90
32614;DHT22;19031;51.400;6.770;2022-08-03T12:01:37;39.30;99.90
32614;DHT22;19031;51.400;6.770;2022-08-03T12:04:05;39.50;99.90
32614;DHT22;19031;51.400;6.770;2022-08-03T12:06:31;39.20;99.90
32614;DHT22;19031;51.400;6.770;2022-08-03T12:09:16;39.00;99.90
32614;DHT22;19031;51.400;6.770;2022-08-03T12:11:42;38.90;99.90
32614;DHT22;19031;51.400;6.770;2022-08-03T12:14:16;38.90;99.90
32614;DHT22;19031;51.400;6.770;2022-08-03T12:16:46;38.50;99.90
32614;DHT22;19031;51.400;6.770;2022-08-03T12:19:12;38.40;99.90
32614;DHT22;19031;51.400;6.770;2022-08-03T12:21:50;38.30;99.90
32614;DHT22;19031;51.400;6.770;2022-08-03T12:24:16;38.40;99.90
32614;DHT22;19031;51.400;6.770;2022-08-03T12:26:44;38.00;99.90
32614;DHT22;19031;51.400;6.770;2022-08-03T12:29:20;38.30;99.90
32614;DHT22;19031;51.400;6.770;2022-08-03T12:31:46;38.60;99.90
32614;DHT22;19031;51.400;6.770;2022-08-03T12:34:13;39.00;99.90
32614;DHT22;19031;51.400;6.770;2022-08-03T12:36:50;39.10;99.90
32614;DHT22;19031;51.400;6.770;2022-08-03T12:39:16;39.30;99.90
32614;DHT22;19031;51.400;6.770;2022-08-03T12:41:42;39.10;99.90
32614;DHT22;19031;51.400;6.770;2022-08-03T12:44:08;39.30;99.90
32614;DHT22;19031;51.400;6.770;2022-08-03T12:46:36;39.20;99.90
32614;DHT22;19031;51.400;6.770;2022-08-03T12:49:13;39.90;99.90
32614;DHT22;19031;51.400;6.770;2022-08-03T12:54:16;40.20;99.90
32614;DHT22;19031;51.400;6.770;2022-08-03T12:57:10;39.60;99.90
32614;DHT22;19031;51.400;6.770;2022-08-03T12:59:40;40.00;99.90
32614;DHT22;19031;51.400;6.770;2022-08-03T13:02:23;39.90;99.90
32614;DHT22;19031;51.400;6.770;2022-08-03T13:04:50;40.20;99.90
32614;DHT22;19031;51.400;6.770;2022-08-03T13:07:16;40.40;99.90
32614;DHT22;19031;51.400;6.770;2022-08-03T13:12:17;40.30;99.90
32614;DHT22;19031;51.400;6.770;2022-08-03T13:14:45;40.00;99.90
32614;DHT22;19031;51.400;6.770;2022-08-03T13:17:12;39.90;99.90
32614;DHT22;19031;51.400;6.770;2022-08-03T13:19:38;40.00;99.90
32614;DHT22;19031;51.400;6.770;2022-08-03T13:22:19;40.00;99.90
32614;DHT22;19031;51.400;6.770;2022-08-03T13:24:46;40.10;99.90
32614;DHT22;19031;51.400;6.770;2022-08-03T13:27:12;40.10;99.90
32614;DHT22;19031;51.400;6.770;2022-08-03T13:29:39;40.20;99.90
32614;DHT22;19031;51.400;6.770;2022-08-03T13:32:05;40.40;99.90
32614;DHT22;19031;51.400;6.770;2022-08-03T13:34:31;40.50;99.90
32614;DHT22;19031;51.400;6.770;2022-08-03T13:36:57;40.70;99.90
32614;DHT22;19031;51.400;6.770;2022-08-03T13:39:23;40.50;99.90
32614;DHT22;19031;51.400;6.770;2022-08-03T13:41:48;40.30;99.90
32614;DHT22;19031;51.400;6.770;2022-08-03T13:44:15;39.90;99.90
32614;DHT22;19031;51.400;6.770;2022-08-03T13:46:40;39.60;99.90
32614;DHT22;19031;51.400;6.770;2022-08-03T13:49:06;39.60;99.90
32614;DHT22;19031;51.400;6.770;2022-08-03T13:51:33;39.60;99.90
32614;DHT22;19031;51.400;6.770;2022-08-03T13:53:59;39.80;99.90
32614;DHT22;19031;51.400;6.770;2022-08-03T13:56:28;39.40;99.90
32614;DHT22;19031;51.400;6.770;2022-08-03T13:58:54;38.90;99.90
32614;DHT22;19031;51.400;6.770;2022-08-03T14:01:19;39.10;99.90
32614;DHT22;19031;51.400;6.770;2022-08-03T14:03:45;39.00;99.90
32614;DHT22;19031;51.400;6.770;2022-08-03T14:06:13;39.20;99.90
32614;DHT22;19031;51.400;6.770;2022-08-03T14:08:39;39.40;99.90
32614;DHT22;19031;51.400;6.770;2022-08-03T14:11:05;39.20;99.90
32614;DHT22;19031;51.400;6.770;2022-08-03T14:13:31;39.00;99.90
32614;DHT22;19031;51.400;6.770;2022-08-03T14:15:56;39.50;99.90
32614;DHT22;19031;51.400;6.770;2022-08-03T14:18:22;39.10;99.90
32614;DHT22;19031;51.400;6.770;2022-08-03T14:20:47;39.10;99.90
32614;DHT22;19031;51.400;6.770;2022-08-03T14:23:13;39.30;99.90
32614;DHT22;19031;51.400;6.770;2022-08-03T14:25:39;39.20;99.90
32614;DHT22;19031;51.400;6.770;2022-08-03T14:28:08;39.30;99.90
32614;DHT22;19031;51.400;6.770;2022-08-03T14:30:34;39.30;99.90
32614;DHT22;19031;51.400;6.770;2022-08-03T14:33:00;39.30;99.90
32614;DHT22;19031;51.400;6.770;2022-08-03T14:35:26;39.40;99.90
32614;DHT22;19031;51.400;6.770;2022-08-03T14:37:51;39.50;99.90
32614;DHT22;19031;51.400;6.770;2022-08-03T14:40:18;39.20;99.90
32614;DHT22;19031;51.400;6.770;2022-08-03T14:42:44;39.10;99.90
32614;DHT22;19031;51.400;6.770;2022-08-03T14:45:09;39.00;99.90
32614;DHT22;19031;51.400;6.770;2022-08-03T14:47:35;38.80;99.90
32614;DHT22;19031;51.400;6.770;2022-08-03T14:50:01;38.80;99.90
32614;DHT22;19031;51.400;6.770;2022-08-03T14:52:29;38.80;99.90
32614;DHT22;19031;51.400;6.770;2022-08-03T14:54:55;38.80;99.90
32614;DHT22;19031;51.400;6.770;2022-08-03T14:57:20;38.50;99.90
32614;DHT22;19031;51.400;6.770;2022-08-03T14:59:46;38.30;99.90
32614;DHT22;19031;51.400;6.770;2022-08-03T15:02:12;38.60;99.90
32614;DHT22;19031;51.400;6.770;2022-08-03T15:04:37;38.30;99.90
32614;DHT22;19031;51.400;6.770;2022-08-03T15:07:03;37.80;99.90
32614;DHT22;19031;51.400;6.770;2022-08-03T15:09:29;37.60;99.90
32614;DHT22;19031;51.400;6.770;2022-08-03T15:11:54;37.60;99.90
32614;DHT22;19031;51.400;6.770;2022-08-03T15:14:20;37.20;99.90
32614;DHT22;19031;51.400;6.770;2022-08-03T15:16:46;36.90;99.90
32614;DHT22;19031;51.400;6.770;2022-08-03T15:19:11;36.60;99.90
32614;DHT22;19031;51.400;6.770;2022-08-03T15:21:37;36.60;99.90
32614;DHT22;19031;51.400;6.770;2022-08-03T15:24:03;36.40;99.90
32614;DHT22;19031;51.400;6.770;2022-08-03T15:26:29;36.10;99.90
32614;DHT22;19031;51.400;6.770;2022-08-03T15:28:55;36.10;99.90
32614;DHT22;19031;51.400;6.770;2022-08-03T15:31:22;36.20;99.90
32614;DHT22;19031;51.400;6.770;2022-08-03T15:33:48;36.00;99.90
32614;DHT22;19031;51.400;6.770;2022-08-03T15:36:18;36.20;99.90
32614;DHT22;19031;51.400;6.770;2022-08-03T15:38:44;36.20;99.90
32614;DHT22;19031;51.400;6.770;2022-08-03T15:41:11;36.20;99.90
32614;DHT22;19031;51.400;6.770;2022-08-03T15:43:37;35.90;99.90
32614;DHT22;19031;51.400;6.770;2022-08-03T15:46:03;35.90;99.90
32614;DHT22;19031;51.400;6.770;2022-08-03T15:48:28;36.00;99.90
32614;DHT22;19031;51.400;6.770;2022-08-03T15:50:54;36.00;99.90
32614;DHT22;19031;51.400;6.770;2022-08-03T15:53:20;36.20;99.90
32614;DHT22;19031;51.400;6.770;2022-08-03T15:55:46;36.40;99.90
32614;DHT22;19031;51.400;6.770;2022-08-03T15:58:14;36.60;99.90
32614;DHT22;19031;51.400;6.770;2022-08-03T16:00:41;36.60;99.90